sensor_id;sensor_type;location;lat;lon;timestamp;temperature;humidity
33863;DHT22;20158;51.436;-2.742;2022-09-09T00:01:27;18.60;70.50
33863;DHT22;20158;51.436;-2.742;2022-09-09T00:04:15;18.60;70.60
33863;DHT22;20158;51.436;-2.742;2022-09-09T00:09:24;18.60;70.80
33863;DHT22;20158;51.436;-2.742;2022-09-09T00:11:58;18.60;70.80
33863;DHT22;20158;51.436;-2.742;2022-09-09T00:17:39;18.50;70.80
33863;DHT22;20158;51.436;-2.742;2022-09-09T00:20:16;18.50;70.90
33863;DHT22;20158;51.436;-2.742;2022-09-09T00:23:00;18.50;70.70
33863;DHT22;20158;51.436;-2.742;2022-09-09T00:25:31;18.50;70.60
33863;DHT22;20158;51.436;-2.742;2022-09-09T00:28:00;18.50;70.70
33863;DHT22;20158;51.436;-2.742;2022-09-09T00:30:31;18.50;70.80
33863;DHT22;20158;51.436;-2.742;2022-09-09T00:33:01;18.40;70.80
33863;DHT22;20158;51.436;-2.742;2022-09-09T00:35:32;18.40;70.90
33863;DHT22;20158;51.436;-2.742;2022-09-09T00:41:10;18.30;70.90
33863;DHT22;20158;51.436;-2.742;2022-09-09T00:43:39;18.40;71.10
33863;DHT22;20158;51.436;-2.742;2022-09-09T00:54:45;18.20;71.00
33863;DHT22;20158;51.436;-2.742;2022-09-09T00:57:27;18.30;71.00
33863;DHT22;20158;51.436;-2.742;2022-09-09T01:02:28;18.20;71.10
33863;DHT22;20158;51.436;-2.742;2022-09-09T01:05:02;18.20;71.10
33863;DHT22;20158;51.436;-2.742;2022-09-09T01:07:30;18.20;71.20
33863;DHT22;20158;51.436;-2.742;2022-09-09T01:09:59;18.20;71.20
33863;DHT22;20158;51.436;-2.742;2022-09-09T01:12:34;18.20;71.20
33863;DHT22;20158;51.436;-2.742;2022-09-09T01:15:16;18.10;71.10
33863;DHT22;20158;51.436;-2.742;2022-09-09T01:18:00;18.10;71.20
33863;DHT22;20158;51.436;-2.742;2022-09-09T01:26:35;18.10;71.30
33863;DHT22;20158;51.436;-2.742;2022-09-09T01:29:12;18.10;71.30
33863;DHT22;20158;51.436;-2.742;2022-09-09T01:31:56;18.10;71.30
33863;DHT22;20158;51.436;-2.742;2022-09-09T01:34:25;18.10;71.30
33863;DHT22;20158;51.436;-2.742;2022-09-09T01:37:07;18.10;71.30
33863;DHT22;20158;51.436;-2.742;2022-09-09T01:39:37;18.00;71.20
33863;DHT22;20158;51.436;-2.742;2022-09-09T01:42:09;18.00;71.20
33863;DHT22;20158;51.436;-2.742;2022-09-09T01:44:38;18.10;71.40
33863;DHT22;20158;51.436;-2.742;2022-09-09T01:47:05;18.00;71.30
33863;DHT22;20158;51.436;-2.742;2022-09-09T01:49:32;18.00;71.40
33863;DHT22;20158;51.436;-2.742;2022-09-09T01:52:03;18.00;71.40
33863;DHT22;20158;51.436;-2.742;2022-09-09T01:54:35;18.00;71.50
33863;DHT22;20158;51.436;-2.742;2022-09-09T01:57:17;17.90;71.40
33863;DHT22;20158;51.436;-2.742;2022-09-09T02:00:01;17.90;71.50
33863;DHT22;20158;51.436;-2.742;2022-09-09T02:08:40;17.90;71.50
33863;DHT22;20158;51.436;-2.742;2022-09-09T02:11:20;17.90;71.50
33863;DHT22;20158;51.436;-2.742;2022-09-09T02:14:27;17.90;71.60
33863;DHT22;20158;51.436;-2.742;2022-09-09T02:17:01;17.90;71.50
33863;DHT22;20158;51.436;-2.742;2022-09-09T02:19:49;17.90;71.60
33863;DHT22;20158;51.436;-2.742;2022-09-09T02:22:24;17.80;71.40
33863;DHT22;20158;51.436;-2.742;2022-09-09T02:24:53;17.80;71.40
33863;DHT22;20158;51.436;-2.742;2022-09-09T02:27:25;17.90;71.60
33863;DHT22;20158;51.436;-2.742;2022-09-09T02:29:53;17.80;71.40
33863;DHT22;20158;51.436;-2.742;2022-09-09T02:32:34;17.90;71.60
33863;DHT22;20158;51.436;-2.742;2022-09-09T02:35:17;17.90;71.70
33863;DHT22;20158;51.436;-2.742;2022-09-09T02:37:45;17.90;71.80
33863;DHT22;20158;51.436;-2.742;2022-09-09T02:40:16;17.90;71.60
33863;DHT22;20158;51.436;-2.742;2022-09-09T02:42:48;17.90;71.70
33863;DHT22;20158;51.436;-2.742;2022-09-09T02:45:25;17.90;71.70
33863;DHT22;20158;51.436;-2.742;2022-09-09T02:50:52;17.90;71.80
33863;DHT22;20158;51.436;-2.742;2022-09-09T02:53:30;17.90;71.80
33863;DHT22;20158;51.436;-2.742;2022-09-09T02:58:32;17.80;71.60
33863;DHT22;20158;51.436;-2.742;2022-09-09T03:01:03;17.80;71.70
33863;DHT22;20158;51.436;-2.742;2022-09-09T03:03:30;17.80;71.70
33863;DHT22;20158;51.436;-2.742;2022-09-09T03:05:58;17.80;71.80
33863;DHT22;20158;51.436;-2.742;2022-09-09T03:08:26;17.80;71.90
33863;DHT22;20158;51.436;-2.742;2022-09-09T03:10:59;17.80;71.90
33863;DHT22;20158;51.436;-2.742;2022-09-09T03:13:28;17.80;71.90
33863;DHT22;20158;51.436;-2.742;2022-09-09T03:15:53;17.80;71.90
33863;DHT22;20158;51.436;-2.742;2022-09-09T03:18:20;17.80;71.90
33863;DHT22;20158;51.436;-2.742;2022-09-09T03:20:49;17.80;72.00
33863;DHT22;20158;51.436;-2.742;2022-09-09T03:23:17;17.80;72.00
33863;DHT22;20158;51.436;-2.742;2022-09-09T03:25:51;17.80;72.00
33863;DHT22;20158;51.436;-2.742;2022-09-09T03:28:23;17.80;72.10
33863;DHT22;20158;51.436;-2.742;2022-09-09T03:30:51;17.70;71.90
33863;DHT22;20158;51.436;-2.742;2022-09-09T03:33:19;17.70;72.50
33863;DHT22;20158;51.436;-2.742;2022-09-09T03:35:46;17.80;72.10
33863;DHT22;20158;51.436;-2.742;2022-09-09T03:38:18;17.80;72.20
33863;DHT22;20158;51.436;-2.742;2022-09-09T03:40:52;17.70;72.00
33863;DHT22;20158;51.436;-2.742;2022-09-09T03:43:22;17.70;72.10
33863;DHT22;20158;51.436;-2.742;2022-09-09T03:45:50;17.70;72.00
33863;DHT22;20158;51.436;-2.742;2022-09-09T03:48:17;17.70;72.00
33863;DHT22;20158;51.436;-2.742;2022-09-09T03:50:47;17.70;72.00
33863;DHT22;20158;51.436;-2.742;2022-09-09T03:53:15;17.70;72.10
33863;DHT22;20158;51.436;-2.742;2022-09-09T03:55:45;17.70;72.10
33863;DHT22;20158;51.436;-2.742;2022-09-09T03:58:13;17.70;72.10
33863;DHT22;20158;51.436;-2.742;2022-09-09T04:00:40;17.70;72.10
33863;DHT22;20158;51.436;-2.742;2022-09-09T04:03:09;17.70;72.10
33863;DHT22;20158;51.436;-2.742;2022-09-09T04:05:35;17.70;72.10
33863;DHT22;20158;51.436;-2.742;2022-09-09T04:08:08;17.70;72.10
33863;DHT22;20158;51.436;-2.742;2022-09-09T04:10:35;17.70;72.20
33863;DHT22;20158;51.436;-2.742;2022-09-09T04:13:04;17.70;72.20
33863;DHT22;20158;51.436;-2.742;2022-09-09T04:15:31;17.70;72.20
33863;DHT22;20158;51.436;-2.742;2022-09-09T04:17:58;17.70;72.80
33863;DHT22;20158;51.436;-2.742;2022-09-09T04:20:23;17.70;72.20
33863;DHT22;20158;51.436;-2.742;2022-09-09T04:22:50;17.70;72.30
33863;DHT22;20158;51.436;-2.742;2022-09-09T04:25:16;17.70;72.30
33863;DHT22;20158;51.436;-2.742;2022-09-09T04:27:41;17.70;72.30
33863;DHT22;20158;51.436;-2.742;2022-09-09T04:30:09;17.70;72.20
33863;DHT22;20158;51.436;-2.742;2022-09-09T04:32:36;17.70;72.20
33863;DHT22;20158;51.436;-2.742;2022-09-09T04:35:03;17.70;72.80
33863;DHT22;20158;51.436;-2.742;2022-09-09T04:37:29;17.70;72.20
33863;DHT22;20158;51.436;-2.742;2022-09-09T04:39:56;17.70;72.20
33863;DHT22;20158;51.436;-2.742;2022-09-09T04:42:22;17.80;72.40
33863;DHT22;20158;51.436;-2.742;2022-09-09T04:44:48;17.70;72.20
33863;DHT22;20158;51.436;-2.742;2022-09-09T04:47:15;17.70;72.20
33863;DHT22;20158;51.436;-2.742;2022-09-09T04:49:41;17.70;72.20
33863;DHT22;20158;51.436;-2.742;2022-09-09T04:52:07;17.70;72.20
33863;DHT22;20158;51.436;-2.742;2022-09-09T04:54:35;17.70;72.20
33863;DHT22;20158;51.436;-2.742;2022-09-09T04:57:01;17.70;72.20
33863;DHT22;20158;51.436;-2.742;2022-09-09T04:59:27;17.70;72.10
33863;DHT22;20158;51.436;-2.742;2022-09-09T05:01:56;17.70;72.10
33863;DHT22;20158;51.436;-2.742;2022-09-09T05:04:22;17.70;72.10
33863;DHT22;20158;51.436;-2.742;2022-09-09T05:06:48;17.70;72.10
33863;DHT22;20158;51.436;-2.742;2022-09-09T05:09:14;17.70;72.10
33863;DHT22;20158;51.436;-2.742;2022-09-09T05:11:40;17.70;72.10
33863;DHT22;20158;51.436;-2.742;2022-09-09T05:14:14;17.70;72.10
33863;DHT22;20158;51.436;-2.742;2022-09-09T05:16:40;17.70;72.20
33863;DHT22;20158;51.436;-2.742;2022-09-09T05:19:07;17.60;72.00
33863;DHT22;20158;51.436;-2.742;2022-09-09T05:21:43;17.60;72.00
33863;DHT22;20158;51.436;-2.742;2022-09-09T05:24:09;17.60;72.00
33863;DHT22;20158;51.436;-2.742;2022-09-09T05:26:35;17.60;72.00
33863;DHT22;20158;51.436;-2.742;2022-09-09T05:29:02;17.60;72.00
33863;DHT22;20158;51.436;-2.742;2022-09-09T05:31:30;17.60;72.00
33863;DHT22;20158;51.436;-2.742;2022-09-09T05:33:57;17.60;72.00
33863;DHT22;20158;51.436;-2.742;2022-09-09T05:36:24;17.60;72.00
33863;DHT22;20158;51.436;-2.742;2022-09-09T05:38:54;17.60;72.60
33863;DHT22;20158;51.436;-2.742;2022-09-09T05:41:20;17.60;72.00
33863;DHT22;20158;51.436;-2.742;2022-09-09T05:43:49;17.60;72.00
33863;DHT22;20158;51.436;-2.742;2022-09-09T05:46:18;17.60;72.00
33863;DHT22;20158;51.436;-2.742;2022-09-09T05:48:47;17.60;72.00
33863;DHT22;20158;51.436;-2.742;2022-09-09T05:51:20;17.50;71.90
33863;DHT22;20158;51.436;-2.742;2022-09-09T05:53:47;17.50;71.90
33863;DHT22;20158;51.436;-2.742;2022-09-09T05:56:19;17.50;71.90
33863;DHT22;20158;51.436;-2.742;2022-09-09T05:58:46;17.50;71.90
33863;DHT22;20158;51.436;-2.742;2022-09-09T06:01:19;17.50;71.90
33863;DHT22;20158;51.436;-2.742;2022-09-09T06:03:47;17.50;71.90
33863;DHT22;20158;51.436;-2.742;2022-09-09T06:06:16;17.50;71.90
33863;DHT22;20158;51.436;-2.742;2022-09-09T06:08:54;17.50;71.90
33863;DHT22;20158;51.436;-2.742;2022-09-09T06:11:25;17.50;71.90
33863;DHT22;20158;51.436;-2.742;2022-09-09T06:13:52;17.50;71.90
33863;DHT22;20158;51.436;-2.742;2022-09-09T06:16:22;17.50;72.00
33863;DHT22;20158;51.436;-2.742;2022-09-09T06:18:53;17.50;72.10
33863;DHT22;20158;51.436;-2.742;2022-09-09T06:21:26;17.50;72.10
33863;DHT22;20158;51.436;-2.742;2022-09-09T06:23:52;17.50;72.10
33863;DHT22;20158;51.436;-2.742;2022-09-09T06:26:21;17.50;72.00
33863;DHT22;20158;51.436;-2.742;2022-09-09T06:28:50;17.60;72.20
33863;DHT22;20158;51.436;-2.742;2022-09-09T06:31:23;17.60;72.30
33863;DHT22;20158;51.436;-2.742;2022-09-09T06:33:51;17.60;72.20
33863;DHT22;20158;51.436;-2.742;2022-09-09T06:36:20;17.60;72.10
33863;DHT22;20158;51.436;-2.742;2022-09-09T06:38:47;17.70;72.20
33863;DHT22;20158;51.436;-2.742;2022-09-09T06:41:16;17.70;72.10
33863;DHT22;20158;51.436;-2.742;2022-09-09T06:43:45;17.80;72.20
33863;DHT22;20158;51.436;-2.742;2022-09-09T06:48:40;17.90;72.10
33863;DHT22;20158;51.436;-2.742;2022-09-09T06:51:16;18.00;72.20
33863;DHT22;20158;51.436;-2.742;2022-09-09T06:53:45;18.10;72.10
33863;DHT22;20158;51.436;-2.742;2022-09-09T06:56:21;18.10;71.90
33863;DHT22;20158;51.436;-2.742;2022-09-09T06:58:51;18.30;72.10
33863;DHT22;20158;51.436;-2.742;2022-09-09T07:01:25;18.40;72.00
33863;DHT22;20158;51.436;-2.742;2022-09-09T07:03:53;18.50;71.90
33863;DHT22;20158;51.436;-2.742;2022-09-09T07:06:25;18.70;71.90
33863;DHT22;20158;51.436;-2.742;2022-09-09T07:08:53;18.70;71.60
33863;DHT22;20158;51.436;-2.742;2022-09-09T07:11:21;18.90;71.60
33863;DHT22;20158;51.436;-2.742;2022-09-09T07:13:48;19.00;71.50
33863;DHT22;20158;51.436;-2.742;2022-09-09T07:16:17;19.20;72.00
33863;DHT22;20158;51.436;-2.742;2022-09-09T07:18:43;19.40;71.40
33863;DHT22;20158;51.436;-2.742;2022-09-09T07:21:11;19.50;71.20
33863;DHT22;20158;51.436;-2.742;2022-09-09T07:23:41;19.70;71.30
33863;DHT22;20158;51.436;-2.742;2022-09-09T07:26:15;19.80;71.20
33863;DHT22;20158;51.436;-2.742;2022-09-09T07:28:42;19.80;71.00
33863;DHT22;20158;51.436;-2.742;2022-09-09T07:31:20;19.90;70.90
33863;DHT22;20158;51.436;-2.742;2022-09-09T07:33:47;20.00;70.90
33863;DHT22;20158;51.436;-2.742;2022-09-09T07:36:16;20.00;70.70
33863;DHT22;20158;51.436;-2.742;2022-09-09T07:38:45;20.00;70.70
33863;DHT22;20158;51.436;-2.742;2022-09-09T07:41:33;20.10;70.80
33863;DHT22;20158;51.436;-2.742;2022-09-09T07:44:05;20.00;70.50
33863;DHT22;20158;51.436;-2.742;2022-09-09T07:46:33;20.10;70.70
33863;DHT22;20158;51.436;-2.742;2022-09-09T07:49:01;20.10;70.50
33863;DHT22;20158;51.436;-2.742;2022-09-09T07:51:35;20.20;70.50
33863;DHT22;20158;51.436;-2.742;2022-09-09T07:54:04;20.30;70.50
33863;DHT22;20158;51.436;-2.742;2022-09-09T07:56:32;20.40;70.30
33863;DHT22;20158;51.436;-2.742;2022-09-09T07:58:59;20.50;70.20
33863;DHT22;20158;51.436;-2.742;2022-09-09T08:01:28;20.70;70.30
33863;DHT22;20158;51.436;-2.742;2022-09-09T08:03:59;20.80;70.00
33863;DHT22;20158;51.436;-2.742;2022-09-09T08:06:32;21.00;69.90
33863;DHT22;20158;51.436;-2.742;2022-09-09T08:09:03;21.20;69.80
33863;DHT22;20158;51.436;-2.742;2022-09-09T08:11:31;21.30;69.50
33863;DHT22;20158;51.436;-2.742;2022-09-09T08:13:59;21.60;69.50
33863;DHT22;20158;51.436;-2.742;2022-09-09T08:16:28;21.70;69.20
33863;DHT22;20158;51.436;-2.742;2022-09-09T08:18:56;21.90;69.00
33863;DHT22;20158;51.436;-2.742;2022-09-09T08:21:26;22.10;69.00
33863;DHT22;20158;51.436;-2.742;2022-09-09T08:23:55;22.20;68.80
33863;DHT22;20158;51.436;-2.742;2022-09-09T08:26:27;22.20;68.50
33863;DHT22;20158;51.436;-2.742;2022-09-09T08:28:55;22.30;68.40
33863;DHT22;20158;51.436;-2.742;2022-09-09T08:31:24;22.40;68.40
33863;DHT22;20158;51.436;-2.742;2022-09-09T08:33:51;22.50;68.30
33863;DHT22;20158;51.436;-2.742;2022-09-09T08:36:19;22.50;68.10
33863;DHT22;20158;51.436;-2.742;2022-09-09T08:38:52;22.60;67.90
33863;DHT22;20158;51.436;-2.742;2022-09-09T08:49:40;22.70;67.40
33863;DHT22;20158;51.436;-2.742;2022-09-09T08:52:03;22.70;67.40
33863;DHT22;20158;51.436;-2.742;2022-09-09T08:54:34;22.70;67.60
33863;DHT22;20158;51.436;-2.742;2022-09-09T08:57:03;22.60;67.40
33863;DHT22;20158;51.436;-2.742;2022-09-09T08:59:33;22.50;67.30
33863;DHT22;20158;51.436;-2.742;2022-09-09T09:02:08;22.50;67.40
33863;DHT22;20158;51.436;-2.742;2022-09-09T09:08:17;22.30;67.10
33863;DHT22;20158;51.436;-2.742;2022-09-09T09:10:50;22.20;67.00
33863;DHT22;20158;51.436;-2.742;2022-09-09T09:16:06;22.10;67.10
33863;DHT22;20158;51.436;-2.742;2022-09-09T09:18:36;22.00;67.10
33863;DHT22;20158;51.436;-2.742;2022-09-09T09:23:48;21.90;67.00
33863;DHT22;20158;51.436;-2.742;2022-09-09T09:26:18;21.80;66.90
33863;DHT22;20158;51.436;-2.742;2022-09-09T09:28:45;21.80;67.00
33863;DHT22;20158;51.436;-2.742;2022-09-09T09:31:15;21.70;66.90
33863;DHT22;20158;51.436;-2.742;2022-09-09T09:33:53;21.70;66.90
33863;DHT22;20158;51.436;-2.742;2022-09-09T09:36:25;21.60;66.70
33863;DHT22;20158;51.436;-2.742;2022-09-09T09:39:01;21.60;66.80
33863;DHT22;20158;51.436;-2.742;2022-09-09T09:43:59;21.60;66.70
33863;DHT22;20158;51.436;-2.742;2022-09-09T09:46:28;21.70;66.90
33863;DHT22;20158;51.436;-2.742;2022-09-09T09:49:04;21.70;66.70
33863;DHT22;20158;51.436;-2.742;2022-09-09T09:51:32;21.80;66.80
33863;DHT22;20158;51.436;-2.742;2022-09-09T09:56:41;21.90;66.70
33863;DHT22;20158;51.436;-2.742;2022-09-09T09:59:32;21.90;66.60
33863;DHT22;20158;51.436;-2.742;2022-09-09T10:02:22;21.90;66.50
33863;DHT22;20158;51.436;-2.742;2022-09-09T10:05:28;21.90;66.50
33863;DHT22;20158;51.436;-2.742;2022-09-09T10:08:18;21.90;66.40
33863;DHT22;20158;51.436;-2.742;2022-09-09T10:16:18;22.00;66.30
33863;DHT22;20158;51.436;-2.742;2022-09-09T10:18:59;22.00;66.20
33863;DHT22;20158;51.436;-2.742;2022-09-09T10:36:22;22.30;66.10
33863;DHT22;20158;51.436;-2.742;2022-09-09T10:41:35;22.40;66.20
33863;DHT22;20158;51.436;-2.742;2022-09-09T10:46:41;22.40;66.20
33863;DHT22;20158;51.436;-2.742;2022-09-09T10:55:02;22.50;66.30
33863;DHT22;20158;51.436;-2.742;2022-09-09T10:57:38;22.60;66.30
33863;DHT22;20158;51.436;-2.742;2022-09-09T11:00:19;22.80;66.40
33863;DHT22;20158;51.436;-2.742;2022-09-09T11:05:28;23.10;66.30
33863;DHT22;20158;51.436;-2.742;2022-09-09T11:08:03;23.20;66.30
33863;DHT22;20158;51.436;-2.742;2022-09-09T11:10:36;23.30;66.80
33863;DHT22;20158;51.436;-2.742;2022-09-09T11:13:40;23.50;66.40
33863;DHT22;20158;51.436;-2.742;2022-09-09T11:22:29;24.10;66.00
33863;DHT22;20158;51.436;-2.742;2022-09-09T11:25:30;24.50;66.10
33863;DHT22;20158;51.436;-2.742;2022-09-09T11:33:27;25.00;65.50
33863;DHT22;20158;51.436;-2.742;2022-09-09T11:38:31;25.10;65.20
33863;DHT22;20158;51.436;-2.742;2022-09-09T11:41:02;25.10;65.20
33863;DHT22;20158;51.436;-2.742;2022-09-09T11:43:46;25.10;65.20
33863;DHT22;20158;51.436;-2.742;2022-09-09T11:46:14;25.10;65.10
33863;DHT22;20158;51.436;-2.742;2022-09-09T11:48:43;25.10;65.10
33863;DHT22;20158;51.436;-2.742;2022-09-09T11:56:44;25.10;64.80
33863;DHT22;20158;51.436;-2.742;2022-09-09T11:59:26;25.20;64.70
33863;DHT22;20158;51.436;-2.742;2022-09-09T12:09:50;25.40;64.30
33863;DHT22;20158;51.436;-2.742;2022-09-09T12:12:35;25.40;64.30
33863;DHT22;20158;51.436;-2.742;2022-09-09T12:17:43;25.40;64.30
33863;DHT22;20158;51.436;-2.742;2022-09-09T12:26:01;25.20;64.60
33863;DHT22;20158;51.436;-2.742;2022-09-09T12:28:11;25.20;64.70
33863;DHT22;20158;51.436;-2.742;2022-09-09T12:30:44;25.20;64.70
33863;DHT22;20158;51.436;-2.742;2022-09-09T12:33:15;25.30;64.60
33863;DHT22;20158;51.436;-2.742;2022-09-09T12:35:43;25.50;64.50
33863;DHT22;20158;51.436;-2.742;2022-09-09T12:38:21;25.50;64.20
33863;DHT22;20158;51.436;-2.742;2022-09-09T12:40:57;25.60;64.10
33863;DHT22;20158;51.436;-2.742;2022-09-09T12:43:25;25.50;64.10
33863;DHT22;20158;51.436;-2.742;2022-09-09T12:45:55;25.50;64.20
33863;DHT22;20158;51.436;-2.742;2022-09-09T12:48:37;25.50;64.40
33863;DHT22;20158;51.436;-2.742;2022-09-09T12:51:07;25.50;64.30
33863;DHT22;20158;51.436;-2.742;2022-09-09T12:53:41;25.70;64.30
33863;DHT22;20158;51.436;-2.742;2022-09-09T12:56:09;25.80;64.10
33863;DHT22;20158;51.436;-2.742;2022-09-09T12:58:47;25.90;64.00
33863;DHT22;20158;51.436;-2.742;2022-09-09T13:01:31;25.90;63.80
33863;DHT22;20158;51.436;-2.742;2022-09-09T13:03:59;25.90;63.80
33863;DHT22;20158;51.436;-2.742;2022-09-09T13:06:30;26.00;63.80
33863;DHT22;20158;51.436;-2.742;2022-09-09T13:08:59;26.00;63.60
33863;DHT22;20158;51.436;-2.742;2022-09-09T13:11:50;26.10;63.50
33863;DHT22;20158;51.436;-2.742;2022-09-09T13:14:28;26.20;63.40
33863;DHT22;20158;51.436;-2.742;2022-09-09T13:16:59;26.20;63.40
33863;DHT22;20158;51.436;-2.742;2022-09-09T13:19:25;26.40;63.80
33863;DHT22;20158;51.436;-2.742;2022-09-09T13:21:54;26.60;63.10
33863;DHT22;20158;51.436;-2.742;2022-09-09T13:24:34;26.70;62.70
33863;DHT22;20158;51.436;-2.742;2022-09-09T13:27:20;26.90;62.40
33863;DHT22;20158;51.436;-2.742;2022-09-09T13:29:52;27.00;62.20
33863;DHT22;20158;51.436;-2.742;2022-09-09T13:32:23;27.00;62.10
33863;DHT22;20158;51.436;-2.742;2022-09-09T13:34:56;27.10;62.10
33863;DHT22;20158;51.436;-2.742;2022-09-09T13:37:33;27.10;62.00
33863;DHT22;20158;51.436;-2.742;2022-09-09T13:40:01;27.10;61.90
33863;DHT22;20158;51.436;-2.742;2022-09-09T13:42:33;27.10;61.80
33863;DHT22;20158;51.436;-2.742;2022-09-09T13:45:03;27.10;61.70
33863;DHT22;20158;51.436;-2.742;2022-09-09T13:47:34;27.10;61.70
33863;DHT22;20158;51.436;-2.742;2022-09-09T13:50:23;27.20;61.70
33863;DHT22;20158;51.436;-2.742;2022-09-09T13:52:54;27.20;61.40
33863;DHT22;20158;51.436;-2.742;2022-09-09T13:55:22;27.30;61.50
33863;DHT22;20158;51.436;-2.742;2022-09-09T13:57:56;27.30;61.40
33863;DHT22;20158;51.436;-2.742;2022-09-09T14:00:23;27.40;61.10
33863;DHT22;20158;51.436;-2.742;2022-09-09T14:02:49;27.50;61.00
33863;DHT22;20158;51.436;-2.742;2022-09-09T14:05:16;27.60;60.80
33863;DHT22;20158;51.436;-2.742;2022-09-09T14:07:44;27.70;60.60
33863;DHT22;20158;51.436;-2.742;2022-09-09T14:10:11;27.70;60.50
33863;DHT22;20158;51.436;-2.742;2022-09-09T14:12:37;27.70;60.40
33863;DHT22;20158;51.436;-2.742;2022-09-09T14:15:05;27.70;60.40
33863;DHT22;20158;51.436;-2.742;2022-09-09T14:17:31;27.70;60.20
33863;DHT22;20158;51.436;-2.742;2022-09-09T14:19:57;27.60;60.10
33863;DHT22;20158;51.436;-2.742;2022-09-09T14:22:23;27.50;60.30
33863;DHT22;20158;51.436;-2.742;2022-09-09T14:24:50;27.50;60.50
33863;DHT22;20158;51.436;-2.742;2022-09-09T14:27:16;27.40;60.60
33863;DHT22;20158;51.436;-2.742;2022-09-09T14:29:42;27.30;60.70
33863;DHT22;20158;51.436;-2.742;2022-09-09T14:32:10;27.30;61.40
33863;DHT22;20158;51.436;-2.742;2022-09-09T14:34:36;27.20;61.50
33863;DHT22;20158;51.436;-2.742;2022-09-09T14:37:02;27.10;60.80
33863;DHT22;20158;51.436;-2.742;2022-09-09T14:39:28;27.10;60.90
33863;DHT22;20158;51.436;-2.742;2022-09-09T14:41:54;27.10;60.90
33863;DHT22;20158;51.436;-2.742;2022-09-09T14:44:20;27.10;60.80
33863;DHT22;20158;51.436;-2.742;2022-09-09T14:46:47;27.10;60.70
33863;DHT22;20158;51.436;-2.742;2022-09-09T14:49:16;27.20;60.60
33863;DHT22;20158;51.436;-2.742;2022-09-09T14:51:42;27.20;60.40
33863;DHT22;20158;51.436;-2.742;2022-09-09T14:54:08;27.20;60.30
33863;DHT22;20158;51.436;-2.742;2022-09-09T14:56:34;27.20;60.30
33863;DHT22;20158;51.436;-2.742;2022-09-09T14:59:00;27.10;60.30
33863;DHT22;20158;51.436;-2.742;2022-09-09T15:01:27;27.10;60.30
33863;DHT22;20158;51.436;-2.742;2022-09-09T15:03:56;27.10;60.40
33863;DHT22;20158;51.436;-2.742;2022-09-09T15:06:24;27.10;60.40
33863;DHT22;20158;51.436;-2.742;2022-09-09T15:08:52;27.10;60.50
33863;DHT22;20158;51.436;-2.742;2022-09-09T15:11:19;27.10;60.50
33863;DHT22;20158;51.436;-2.742;2022-09-09T15:13:46;27.10;60.40
33863;DHT22;20158;51.436;-2.742;2022-09-09T15:16:17;27.10;60.40
33863;DHT22;20158;51.436;-2.742;2022-09-09T15:18:45;27.40;60.50
33863;DHT22;20158;51.436;-2.742;2022-09-09T15:21:17;27.70;60.00
33863;DHT22;20158;51.436;-2.742;2022-09-09T15:23:45;28.20;59.10
33863;DHT22;20158;51.436;-2.742;2022-09-09T15:26:11;28.40;58.70
33863;DHT22;20158;51.436;-2.742;2022-09-09T15:28:41;29.00;58.00
33863;DHT22;20158;51.436;-2.742;2022-09-09T15:31:13;29.80;56.50
33863;DHT22;20158;51.436;-2.742;2022-09-09T15:33:52;30.60;55.00
33863;DHT22;20158;51.436;-2.742;2022-09-09T15:36:24;31.40;53.50
33863;DHT22;20158;51.436;-2.742;2022-09-09T15:38:51;31.50;52.70
33863;DHT22;20158;51.436;-2.742;2022-09-09T15:41:19;31.20;53.00
33863;DHT22;20158;51.436;-2.742;2022-09-09T15:43:51;31.00;53.60
33863;DHT22;20158;51.436;-2.742;2022-09-09T15:48:44;30.40;54.30
33863;DHT22;20158;51.436;-2.742;2022-09-09T15:51:10;30.30;54.70
33863;DHT22;20158;51.436;-2.742;2022-09-09T15:53:37;30.70;54.40
33863;DHT22;20158;51.436;-2.742;2022-09-09T15:56:05;31.60;53.20
33863;DHT22;20158;51.436;-2.742;2022-09-09T15:58:33;32.60;51.70
33863;DHT22;20158;51.436;-2.742;2022-09-09T16:01:06;33.50;50.10
33863;DHT22;20158;51.436;-2.742;2022-09-09T16:03:38;34.20;48.70
33863;DHT22;20158;51.436;-2.742;2022-09-09T16:06:05;34.60;47.90
33863;DHT22;20158;51.436;-2.742;2022-09-09T16:08:32;34.90;47.40
33863;DHT22;20158;51.436;-2.742;2022-09-09T16:11:05;35.00;47.10
33863;DHT22;20158;51.436;-2.742;2022-09-09T16:13:35;34.90;47.00
33863;DHT22;20158;51.436;-2.742;2022-09-09T16:16:01;34.60;47.30
33863;DHT22;20158;51.436;-2.742;2022-09-09T16:18:36;34.40;47.60
33863;DHT22;20158;51.436;-2.742;2022-09-09T16:21:03;34.30;48.10
33863;DHT22;20158;51.436;-2.742;2022-09-09T16:23:34;34.10;48.40
33863;DHT22;20158;51.436;-2.742;2022-09-09T16:26:01;34.10;47.90
33863;DHT22;20158;51.436;-2.742;2022-09-09T16:28:29;34.10;47.50
33863;DHT22;20158;51.436;-2.742;2022-09-09T16:30:55;34.10;47.10
33863;DHT22;20158;51.436;-2.742;2022-09-09T16:33:21;34.10;47.00
33863;DHT22;20158;51.436;-2.742;2022-09-09T16:35:47;34.10;46.70
33863;DHT22;20158;51.436;-2.742;2022-09-09T16:38:15;34.00;46.70
33863;DHT22;20158;51.436;-2.742;2022-09-09T16:40:40;33.90;46.80
33863;DHT22;20158;51.436;-2.742;2022-09-09T16:43:07;33.50;46.90
33863;DHT22;20158;51.436;-2.742;2022-09-09T16:45:41;33.10;47.30
33863;DHT22;20158;51.436;-2.742;2022-09-09T16:48:07;32.70;47.80
33863;DHT22;20158;51.436;-2.742;2022-09-09T16:50:33;32.30;48.30
33863;DHT22;20158;51.436;-2.742;2022-09-09T16:52:59;31.90;48.70
33863;DHT22;20158;51.436;-2.742;2022-09-09T16:55:28;31.60;49.30
33863;DHT22;20158;51.436;-2.742;2022-09-09T16:57:55;31.30;49.80
33863;DHT22;20158;51.436;-2.742;2022-09-09T17:00:21;30.90;50.10
33863;DHT22;20158;51.436;-2.742;2022-09-09T17:02:48;30.60;50.50
33863;DHT22;20158;51.436;-2.742;2022-09-09T17:05:14;30.30;50.80
33863;DHT22;20158;51.436;-2.742;2022-09-09T17:07:40;30.10;51.20
33863;DHT22;20158;51.436;-2.742;2022-09-09T17:10:07;29.90;51.50
33863;DHT22;20158;51.436;-2.742;2022-09-09T17:12:34;29.70;51.80
33863;DHT22;20158;51.436;-2.742;2022-09-09T17:15:01;29.50;52.10
33863;DHT22;20158;51.436;-2.742;2022-09-09T17:17:28;29.30;52.30
33863;DHT22;20158;51.436;-2.742;2022-09-09T17:19:54;29.10;52.60
33863;DHT22;20158;51.436;-2.742;2022-09-09T17:22:20;28.80;52.80
33863;DHT22;20158;51.436;-2.742;2022-09-09T17:24:47;28.60;53.10
33863;DHT22;20158;51.436;-2.742;2022-09-09T17:27:13;28.40;54.00
33863;DHT22;20158;51.436;-2.742;2022-09-09T17:29:39;28.30;53.80
33863;DHT22;20158;51.436;-2.742;2022-09-09T17:32:06;28.10;54.00
33863;DHT22;20158;51.436;-2.742;2022-09-09T17:34:34;27.90;54.30
33863;DHT22;20158;51.436;-2.742;2022-09-09T17:37:00;27.70;54.50
33863;DHT22;20158;51.436;-2.742;2022-09-09T17:39:26;27.60;54.90
33863;DHT22;20158;51.436;-2.742;2022-09-09T17:41:52;27.40;55.20
33863;DHT22;20158;51.436;-2.742;2022-09-09T17:44:20;27.20;55.50
33863;DHT22;20158;51.436;-2.742;2022-09-09T17:46:46;27.10;55.80
33863;DHT22;20158;51.436;-2.742;2022-09-09T17:49:14;26.90;56.00
33863;DHT22;20158;51.436;-2.742;2022-09-09T17:51:42;26.70;56.40